createdAt,value
2023-02-16T00:00:29.392Z,14.85
2023-02-16T00:02:56.312Z,14.50
2023-02-16T00:05:34.382Z,18.27
2023-02-16T00:08:01.724Z,8.95
2023-02-16T00:10:33.847Z,19.70
2023-02-16T00:13:19.242Z,19.13
2023-02-16T00:15:46.210Z,20.40
2023-02-16T00:18:17.154Z,18.58
2023-02-16T00:20:43.833Z,17.17
2023-02-16T00:23:10.464Z,19.73
2023-02-16T00:25:37.940Z,17.85
2023-02-16T00:28:10.264Z,17.20
2023-02-16T00:30:36.803Z,17.83
2023-02-16T00:33:05.542Z,21.30
2023-02-16T00:35:32.047Z,23.00
2023-02-16T00:37:58.726Z,19.35
2023-02-16T00:40:25.343Z,18.75
2023-02-16T00:42:51.950Z,21.80
2023-02-16T00:45:21.015Z,19.55
2023-02-16T00:47:51.132Z,22.08
2023-02-16T00:50:22.282Z,20.15
2023-02-16T00:52:49.543Z,18.35
2023-02-16T00:55:26.810Z,23.30
2023-02-16T00:58:22.660Z,22.38
2023-02-16T01:00:52.611Z,21.88
2023-02-16T01:03:23.430Z,20.92
2023-02-16T01:06:10.460Z,20.25
2023-02-16T01:08:55.727Z,21.08
2023-02-16T01:11:24.151Z,20.85
2023-02-16T01:13:51.867Z,20.23
2023-02-16T01:16:25.094Z,17.13
2023-02-16T01:18:52.481Z,11.95
2023-02-16T01:21:19.456Z,16.35
2023-02-16T01:23:46.039Z,18.77
2023-02-16T01:26:16.479Z,17.25
2023-02-16T01:28:43.805Z,18.40
2023-02-16T01:31:11.410Z,19.60
2023-02-16T01:33:38.019Z,21.00
2023-02-16T01:36:05.643Z,21.95
2023-02-16T01:38:32.355Z,21.92
2023-02-16T01:41:22.838Z,21.95
2023-02-16T01:43:59.843Z,17.33
2023-02-16T01:46:53.173Z,18.52
2023-02-16T01:49:21.026Z,19.85
2023-02-16T01:52:01.253Z,17.00
2023-02-16T01:54:53.343Z,13.68
2023-02-16T01:57:33.596Z,18.95
2023-02-16T02:00:29.702Z,17.42
2023-02-16T02:03:19.849Z,14.45
2023-02-16T02:05:48.434Z,13.88
2023-02-16T02:08:17.938Z,15.98
2023-02-16T02:11:09.124Z,17.02
2023-02-16T02:14:00.780Z,19.55
2023-02-16T02:16:28.457Z,19.88
2023-02-16T02:18:55.261Z,19.98
2023-02-16T02:22:21.973Z,14.93
2023-02-16T02:25:33.233Z,15.93
2023-02-16T02:28:25.773Z,14.32
2023-02-16T02:31:10.681Z,19.67
2023-02-16T02:34:15.492Z,12.00
2023-02-16T02:39:45.993Z,20.23
2023-02-16T02:42:51.685Z,18.23
2023-02-16T02:45:36.161Z,21.63
2023-02-16T02:48:03.156Z,19.60
2023-02-16T02:50:32.567Z,20.35
2023-02-16T02:53:02.237Z,21.50
2023-02-16T02:55:52.151Z,20.60
2023-02-16T02:58:42.903Z,22.58
2023-02-16T03:01:11.924Z,14.88
2023-02-16T03:03:46.632Z,16.95
2023-02-16T03:06:33.896Z,10.90
2023-02-16T03:09:14.187Z,17.77
2023-02-16T03:12:00.998Z,11.45
2023-02-16T03:14:39.460Z,13.32
2023-02-16T03:17:36.748Z,13.27
2023-02-16T03:20:25.524Z,15.77
2023-02-16T03:23:10.859Z,9.90
2023-02-16T03:25:57.841Z,13.30
2023-02-16T03:28:46.533Z,11.80
2023-02-16T03:31:18.771Z,15.98
2023-02-16T03:33:46.918Z,16.85
2023-02-16T03:36:13.831Z,16.85
2023-02-16T03:38:40.381Z,12.32
2023-02-16T03:41:07.012Z,10.65
2023-02-16T03:43:34.266Z,14.73
2023-02-16T03:46:00.886Z,15.77
2023-02-16T03:48:27.498Z,16.85
2023-02-16T03:50:54.180Z,17.17
2023-02-16T03:53:20.739Z,12.95
2023-02-16T03:55:48.536Z,13.82
2023-02-16T03:58:18.459Z,15.95
2023-02-16T04:00:45.357Z,13.32
2023-02-16T04:03:12.140Z,9.18
2023-02-16T04:05:38.794Z,15.75
2023-02-16T04:08:06.551Z,16.33
2023-02-16T04:10:33.331Z,18.55
2023-02-16T04:13:00.042Z,20.17
2023-02-16T04:15:28.560Z,17.55
2023-02-16T04:17:55.414Z,11.05
2023-02-16T04:20:24.968Z,13.23
2023-02-16T04:22:51.586Z,8.55
2023-02-16T04:25:18.934Z,13.00
2023-02-16T04:27:45.983Z,10.40
2023-02-16T04:30:15.198Z,15.10
2023-02-16T04:32:41.822Z,15.82
2023-02-16T04:35:08.377Z,13.32
2023-02-16T04:37:35.687Z,17.67
2023-02-16T04:40:02.975Z,18.42
2023-02-16T04:42:29.560Z,16.38
2023-02-16T04:44:56.089Z,11.35
2023-02-16T04:47:25.892Z,14.07
2023-02-16T04:49:53.740Z,7.97
2023-02-16T04:52:20.648Z,13.50
2023-02-16T04:54:47.462Z,13.43
2023-02-16T04:57:14.026Z,15.95
2023-02-16T04:59:40.576Z,12.98
2023-02-16T05:02:07.418Z,13.27
2023-02-16T05:04:34.518Z,10.05
2023-02-16T05:07:01.212Z,7.68
2023-02-16T05:09:27.808Z,9.80
2023-02-16T05:12:12.909Z,11.98
2023-02-16T05:14:42.599Z,13.05
2023-02-16T05:17:15.004Z,17.33
2023-02-16T05:19:43.732Z,12.20
2023-02-16T05:22:11.085Z,13.75
2023-02-16T05:24:38.320Z,10.88
2023-02-16T05:27:07.000Z,11.10
2023-02-16T05:29:34.126Z,14.82
2023-02-16T05:32:04.273Z,9.65
2023-02-16T05:34:31.544Z,11.90
2023-02-16T05:36:58.086Z,13.10
2023-02-16T05:39:25.025Z,10.35
2023-02-16T05:41:51.651Z,16.63
2023-02-16T05:44:18.676Z,11.45
2023-02-16T05:46:46.577Z,11.50
2023-02-16T05:49:14.304Z,11.63
2023-02-16T05:51:40.869Z,12.95
2023-02-16T05:54:08.280Z,12.75
2023-02-16T05:56:35.024Z,12.35
2023-02-16T05:59:01.634Z,12.15
2023-02-16T06:01:29.205Z,10.30
2023-02-16T06:03:55.815Z,8.07
2023-02-16T06:06:22.423Z,12.55
2023-02-16T06:08:48.998Z,13.40
2023-02-16T06:11:34.341Z,11.90
2023-02-16T06:14:02.651Z,11.35
2023-02-16T06:16:31.637Z,9.77
2023-02-16T06:18:59.154Z,10.40
2023-02-16T06:21:26.662Z,10.57
2023-02-16T06:23:53.552Z,11.80
2023-02-16T06:26:20.304Z,8.88
2023-02-16T06:28:46.920Z,12.60
2023-02-16T06:31:14.024Z,10.10
2023-02-16T06:33:40.776Z,10.35
2023-02-16T06:36:07.778Z,8.50
2023-02-16T06:38:34.317Z,13.07
2023-02-16T06:41:01.142Z,10.77
2023-02-16T06:43:29.881Z,11.10
2023-02-16T06:45:57.467Z,9.75
2023-02-16T06:48:24.172Z,13.57
2023-02-16T06:50:51.297Z,8.57
2023-02-16T06:53:18.074Z,13.02
2023-02-16T06:55:44.667Z,14.27
2023-02-16T06:58:11.545Z,13.98
2023-02-16T07:00:38.532Z,7.32
2023-02-16T07:03:05.247Z,11.38
2023-02-16T07:05:31.822Z,11.15
2023-02-16T07:07:58.362Z,11.15
2023-02-16T07:10:24.889Z,11.73
2023-02-16T07:12:51.474Z,14.88
2023-02-16T07:15:18.050Z,14.05
2023-02-16T07:17:44.619Z,10.98
2023-02-16T07:20:12.866Z,10.20
2023-02-16T07:22:39.828Z,9.90
2023-02-16T07:25:06.907Z,12.30
2023-02-16T07:27:33.438Z,11.43
2023-02-16T07:30:00.000Z,16.13
2023-02-16T07:32:27.218Z,14.18
2023-02-16T07:34:53.853Z,14.88
2023-02-16T07:37:20.379Z,9.98
2023-02-16T07:39:46.941Z,15.63
2023-02-16T07:42:13.532Z,13.25
2023-02-16T07:44:40.029Z,10.70
2023-02-16T07:47:06.635Z,11.68
2023-02-16T07:49:33.221Z,15.93
2023-02-16T07:51:59.811Z,14.00
2023-02-16T07:54:26.364Z,14.68
2023-02-16T07:56:52.953Z,14.98
2023-02-16T07:59:19.483Z,13.20
2023-02-16T08:01:46.184Z,7.40
2023-02-16T08:04:12.837Z,14.10
2023-02-16T08:06:39.815Z,12.32
2023-02-16T08:09:06.372Z,14.18
2023-02-16T08:11:33.101Z,13.57
2023-02-16T08:14:00.407Z,10.88
2023-02-16T08:16:28.373Z,9.38
2023-02-16T08:19:00.030Z,11.02
2023-02-16T08:21:31.051Z,15.00
2023-02-16T08:24:02.887Z,15.73
2023-02-16T08:26:37.660Z,11.07
2023-02-16T08:29:05.868Z,15.10
2023-02-16T08:31:35.184Z,10.32
2023-02-16T08:34:03.442Z,13.75
2023-02-16T08:36:35.174Z,10.13
2023-02-16T08:39:07.586Z,11.18
2023-02-16T08:41:36.862Z,14.02
2023-02-16T08:44:07.688Z,13.13
2023-02-16T08:46:35.510Z,11.95
2023-02-16T08:49:02.364Z,13.20
2023-02-16T08:51:31.853Z,13.85
2023-02-16T08:54:00.280Z,15.32
2023-02-16T08:56:29.739Z,12.52
2023-02-16T08:58:57.096Z,15.23
2023-02-16T09:01:23.919Z,17.63
2023-02-16T09:03:51.269Z,11.77
2023-02-16T09:06:21.445Z,16.23
2023-02-16T09:08:53.115Z,11.32
2023-02-16T09:11:20.635Z,11.05
2023-02-16T09:13:47.502Z,13.25
2023-02-16T09:16:21.048Z,10.43
2023-02-16T09:18:48.559Z,15.48
2023-02-16T09:21:18.401Z,15.13
2023-02-16T09:23:50.019Z,13.35
2023-02-16T09:26:18.332Z,16.05
2023-02-16T09:28:45.936Z,15.25
2023-02-16T09:31:25.812Z,10.70
2023-02-16T09:33:58.144Z,11.60
2023-02-16T09:36:24.892Z,8.15
2023-02-16T09:38:51.647Z,14.82
2023-02-16T09:41:43.301Z,14.52
2023-02-16T09:44:15.776Z,13.95
2023-02-16T09:46:42.865Z,15.35
2023-02-16T09:49:34.877Z,8.70
2023-02-16T09:52:42.794Z,11.15
2023-02-16T09:55:16.203Z,12.35
2023-02-16T09:57:57.045Z,13.40
2023-02-16T10:00:43.595Z,11.13
2023-02-16T10:03:19.097Z,13.43
2023-02-16T10:06:03.082Z,13.50
2023-02-16T10:14:37.167Z,14.15
2023-02-16T10:17:28.379Z,12.23
2023-02-16T10:20:23.745Z,10.20
2023-02-16T10:23:08.087Z,11.68
2023-02-16T10:25:44.260Z,13.50
2023-02-16T10:28:19.464Z,12.57
2023-02-16T10:30:58.347Z,12.63
2023-02-16T10:33:38.268Z,16.52
2023-02-16T10:36:29.289Z,12.80
2023-02-16T10:39:09.880Z,14.25
2023-02-16T10:41:45.713Z,16.77
2023-02-16T10:44:28.752Z,14.48
2023-02-16T10:47:00.595Z,11.18
2023-02-16T10:49:30.607Z,14.98
2023-02-16T10:51:59.230Z,13.57
2023-02-16T10:54:29.682Z,14.07
2023-02-16T10:57:05.489Z,14.05
2023-02-16T10:59:40.988Z,14.93
2023-02-16T11:02:29.085Z,15.35
2023-02-16T11:04:58.139Z,17.25
2023-02-16T11:07:28.318Z,17.15
2023-02-16T11:09:57.341Z,12.93
2023-02-16T11:12:24.336Z,11.48
2023-02-16T11:14:58.910Z,13.00
2023-02-16T11:17:26.334Z,16.27
2023-02-16T11:20:00.120Z,15.75
2023-02-16T11:22:39.634Z,13.40
2023-02-16T11:25:18.808Z,15.75
2023-02-16T11:27:58.200Z,11.15
2023-02-16T11:30:37.152Z,17.00
2023-02-16T11:33:18.411Z,12.95
2023-02-16T11:35:45.803Z,12.68
2023-02-16T11:38:37.050Z,12.82
2023-02-16T11:41:07.217Z,13.27
2023-02-16T11:43:37.661Z,9.35
2023-02-16T11:46:14.864Z,10.82
2023-02-16T11:48:42.728Z,9.23
2023-02-16T11:51:15.183Z,13.48
2023-02-16T11:53:44.315Z,13.90
2023-02-16T11:56:27.480Z,13.07
2023-02-16T11:59:05.410Z,15.37
2023-02-16T12:02:00.592Z,12.30
2023-02-16T12:04:57.856Z,15.05
2023-02-16T12:07:47.016Z,9.30
2023-02-16T12:10:28.728Z,11.38
2023-02-16T12:13:04.868Z,10.52
2023-02-16T12:16:02.011Z,15.43
2023-02-16T12:19:14.205Z,12.98
2023-02-16T12:22:28.259Z,13.73
2023-02-16T12:25:46.037Z,12.60
2023-02-16T12:28:24.662Z,11.45
2023-02-16T12:31:17.409Z,13.75
2023-02-16T12:34:13.706Z,13.02
2023-02-16T12:37:17.581Z,12.68
2023-02-16T12:40:02.494Z,15.40
2023-02-16T12:42:32.007Z,11.70
2023-02-16T12:45:04.966Z,13.00
2023-02-16T12:47:37.809Z,10.83
2023-02-16T12:50:29.804Z,9.37
2023-02-16T12:53:03.016Z,12.15
2023-02-16T12:55:38.714Z,14.52
2023-02-16T12:58:07.972Z,13.27
2023-02-16T13:00:48.606Z,12.48
2023-02-16T13:03:23.430Z,11.45
2023-02-16T13:06:00.581Z,10.98
2023-02-16T13:08:39.331Z,11.85
2023-02-16T13:11:14.124Z,12.02
2023-02-16T13:13:41.471Z,13.43
2023-02-16T13:16:30.766Z,11.20
2023-02-16T13:18:58.272Z,10.70
2023-02-16T13:21:51.346Z,10.07
2023-02-16T13:24:46.526Z,11.68
2023-02-16T13:27:32.708Z,13.93
2023-02-16T13:30:21.046Z,11.88
2023-02-16T13:33:07.152Z,15.90
2023-02-16T13:36:22.969Z,13.07
2023-02-16T13:39:22.805Z,8.38
2023-02-16T13:42:14.787Z,13.90
2023-02-16T13:45:04.551Z,11.48
2023-02-16T13:47:37.046Z,11.10
2023-02-16T13:50:09.783Z,9.20
2023-02-16T13:52:41.246Z,10.63
2023-02-16T13:55:31.671Z,13.23
2023-02-16T13:58:04.471Z,13.32
2023-02-16T14:00:57.365Z,9.48
2023-02-16T14:03:23.888Z,12.82
2023-02-16T14:05:56.338Z,15.70
2023-02-16T14:08:30.461Z,8.20
2023-02-16T14:11:04.027Z,12.77
2023-02-16T14:13:39.378Z,12.70
2023-02-16T14:16:13.293Z,9.18
2023-02-16T14:18:55.091Z,15.65
2023-02-16T14:21:41.909Z,12.13
2023-02-16T14:24:33.307Z,11.85
2023-02-16T14:27:10.726Z,10.93
2023-02-16T14:29:38.947Z,10.20
2023-02-16T14:32:33.876Z,9.85
2023-02-16T14:35:08.876Z,15.27
2023-02-16T14:37:44.485Z,9.35
2023-02-16T14:40:31.713Z,11.50
2023-02-16T14:43:05.116Z,15.10
2023-02-16T14:45:53.772Z,12.00
2023-02-16T14:48:41.404Z,13.60
2023-02-16T14:51:32.098Z,17.60
2023-02-16T14:54:53.038Z,14.65
2023-02-16T14:57:37.322Z,13.15
2023-02-16T15:00:19.584Z,13.80
2023-02-16T15:03:14.024Z,12.35
2023-02-16T15:08:35.364Z,8.75
2023-02-16T15:11:23.060Z,13.18
2023-02-16T15:13:53.320Z,19.15
2023-02-16T15:16:22.698Z,14.60
2023-02-16T15:18:53.429Z,16.35
2023-02-16T15:21:21.513Z,17.00
2023-02-16T15:23:54.094Z,12.35
2023-02-16T15:26:24.556Z,12.57
2023-02-16T15:28:56.861Z,11.68
2023-02-16T15:31:32.521Z,19.02
2023-02-16T15:34:08.269Z,15.13
2023-02-16T15:36:38.437Z,11.85
2023-02-16T15:39:41.295Z,12.98
2023-02-16T15:42:15.007Z,14.13
2023-02-16T15:44:41.768Z,13.32
2023-02-16T15:47:10.674Z,10.07
2023-02-16T15:49:39.939Z,14.18
2023-02-16T15:52:12.178Z,18.10
2023-02-16T15:54:40.596Z,19.80
2023-02-16T15:57:30.923Z,20.45
2023-02-16T16:00:20.828Z,14.60
2023-02-16T16:02:58.469Z,17.83
2023-02-16T16:05:28.836Z,20.67
2023-02-16T16:07:57.500Z,20.52
2023-02-16T16:10:32.701Z,17.35
2023-02-16T16:13:03.285Z,22.92
2023-02-16T16:15:32.564Z,19.55
2023-02-16T16:18:00.972Z,16.73
2023-02-16T16:20:41.660Z,14.93
2023-02-16T16:23:17.061Z,20.48
2023-02-16T16:25:46.812Z,14.15
2023-02-16T16:28:33.525Z,20.17
2023-02-16T16:31:12.439Z,17.15
2023-02-16T16:33:59.799Z,17.42
2023-02-16T16:36:40.363Z,20.40
2023-02-16T16:39:19.069Z,15.70
2023-02-16T16:41:56.565Z,17.75
2023-02-16T16:44:33.081Z,16.17
2023-02-16T16:47:27.014Z,19.10
2023-02-16T16:49:58.242Z,18.73
2023-02-16T16:52:40.912Z,18.50
2023-02-16T16:55:19.677Z,16.88
2023-02-16T16:57:48.861Z,11.68
2023-02-16T17:00:17.145Z,13.27
2023-02-16T17:02:43.859Z,12.38
2023-02-16T17:05:11.094Z,16.75
2023-02-16T17:07:37.749Z,19.42
2023-02-16T17:10:05.254Z,19.40
2023-02-16T17:12:32.427Z,24.60
2023-02-16T17:15:01.028Z,27.63
2023-02-16T17:17:27.913Z,28.85
2023-02-16T17:19:54.531Z,27.88
2023-02-16T17:22:21.850Z,26.63
2023-02-16T17:24:48.475Z,21.27
2023-02-16T17:27:15.291Z,18.77
2023-02-16T17:29:44.752Z,18.50
2023-02-16T17:32:11.461Z,19.65
2023-02-16T17:34:38.198Z,17.48
2023-02-16T17:37:09.326Z,18.58
2023-02-16T17:39:36.527Z,29.75
2023-02-16T17:42:03.567Z,21.95
2023-02-16T17:44:30.318Z,20.08
2023-02-16T17:46:57.181Z,15.55
2023-02-16T17:49:23.876Z,12.73
2023-02-16T17:51:50.478Z,15.60
2023-02-16T17:54:17.131Z,13.13
2023-02-16T17:56:46.645Z,15.07
2023-02-16T17:59:15.508Z,22.38
2023-02-16T18:01:45.555Z,19.20
2023-02-16T18:04:12.438Z,15.02
2023-02-16T18:06:39.096Z,9.02
2023-02-16T18:09:06.012Z,10.65
2023-02-16T18:11:32.673Z,13.40
2023-02-16T18:13:59.270Z,19.75
2023-02-16T18:16:27.410Z,15.25
2023-02-16T18:18:54.762Z,20.38
2023-02-16T18:21:21.320Z,15.55
2023-02-16T18:23:48.039Z,18.48
2023-02-16T18:26:16.289Z,12.25
2023-02-16T18:28:44.177Z,12.48
2023-02-16T18:31:14.557Z,21.63
2023-02-16T18:33:41.394Z,16.88
2023-02-16T18:36:08.713Z,14.52
2023-02-16T18:38:35.395Z,9.52
2023-02-16T18:41:02.069Z,10.38
2023-02-16T18:43:29.597Z,10.90
2023-02-16T18:45:56.268Z,11.40
2023-02-16T18:48:23.409Z,12.93
2023-02-16T18:50:50.123Z,12.13
2023-02-16T18:53:16.703Z,13.70
2023-02-16T18:55:43.297Z,9.60
2023-02-16T18:58:12.954Z,14.43
2023-02-16T19:00:39.662Z,8.45
2023-02-16T19:03:06.387Z,11.77
2023-02-16T19:05:33.630Z,7.47
2023-02-16T19:08:00.180Z,11.20
2023-02-16T19:10:27.475Z,7.95
2023-02-16T19:12:54.077Z,7.85
2023-02-16T19:15:20.618Z,9.40
2023-02-16T19:17:47.329Z,11.05
2023-02-16T19:20:18.155Z,11.25
2023-02-16T19:22:46.546Z,10.48
2023-02-16T19:25:14.173Z,14.55
2023-02-16T19:27:41.026Z,14.80
2023-02-16T19:30:08.392Z,11.32
2023-02-16T19:32:35.371Z,7.30
2023-02-16T19:35:02.185Z,5.75
2023-02-16T19:37:28.926Z,4.32
2023-02-16T19:39:55.621Z,5.25
2023-02-16T19:42:22.292Z,7.22
2023-02-16T19:44:49.118Z,5.07
2023-02-16T19:47:15.638Z,5.53
2023-02-16T19:49:42.708Z,5.57
2023-02-16T19:52:09.407Z,5.07
2023-02-16T19:54:35.986Z,7.35
2023-02-16T19:57:03.834Z,5.15
2023-02-16T19:59:31.633Z,5.57
2023-02-16T20:01:59.056Z,7.78
2023-02-16T20:04:26.126Z,7.72
2023-02-16T20:06:54.442Z,6.85
2023-02-16T20:09:22.125Z,8.75
2023-02-16T20:11:49.674Z,9.43
2023-02-16T20:14:16.438Z,11.93
2023-02-16T20:16:43.758Z,8.93
2023-02-16T20:19:10.587Z,9.85
2023-02-16T20:21:37.431Z,7.85
2023-02-16T20:24:06.168Z,14.68
2023-02-16T20:26:36.744Z,19.00
2023-02-16T20:29:05.776Z,9.07
2023-02-16T20:31:36.233Z,7.07
2023-02-16T20:34:03.983Z,5.85
2023-02-16T20:36:32.089Z,6.43
2023-02-16T20:38:59.662Z,12.15
2023-02-16T20:41:26.296Z,15.02
2023-02-16T20:43:53.326Z,11.82
2023-02-16T20:46:23.683Z,11.85
2023-02-16T20:48:51.057Z,11.45
2023-02-16T20:51:19.401Z,17.08
2023-02-16T20:53:46.493Z,12.30
2023-02-16T20:56:23.116Z,12.05
2023-02-16T20:58:51.649Z,11.32
2023-02-16T21:01:28.813Z,14.93
2023-02-16T21:03:57.219Z,15.07
2023-02-16T21:06:24.211Z,14.32
2023-02-16T21:08:50.918Z,16.60
2023-02-16T21:11:18.392Z,9.38
2023-02-16T21:13:46.064Z,14.75
2023-02-16T21:16:14.219Z,15.13
2023-02-16T21:24:04.642Z,14.75
2023-02-16T21:26:31.201Z,13.40
2023-02-16T21:45:14.564Z,12.10
2023-02-16T22:14:40.404Z,15.95
2023-02-16T22:17:07.720Z,16.05
2023-02-16T22:19:34.299Z,9.57
2023-02-16T22:22:00.838Z,17.98
2023-02-16T22:32:26.448Z,12.82
2023-02-16T22:34:54.311Z,12.43
2023-02-16T22:37:20.871Z,12.25
2023-02-16T22:39:47.565Z,11.40
2023-02-16T22:42:14.096Z,11.48
2023-02-16T22:44:40.645Z,7.30
2023-02-16T22:47:07.252Z,8.45
2023-02-16T22:49:33.835Z,7.45
2023-02-16T22:52:00.387Z,7.18
2023-02-16T22:54:26.932Z,9.18
2023-02-16T22:56:53.482Z,10.13
2023-02-16T22:59:20.029Z,12.80
2023-02-16T23:01:46.615Z,10.35
2023-02-16T23:04:15.451Z,13.55
2023-02-16T23:06:44.982Z,17.20
2023-02-16T23:09:20.271Z,16.42
2023-02-16T23:11:48.235Z,17.73
2023-02-16T23:14:18.569Z,14.23
2023-02-16T23:16:50.763Z,15.65
2023-02-16T23:19:20.800Z,13.32
2023-02-16T23:21:48.145Z,13.25
2023-02-16T23:24:17.701Z,17.98
2023-02-16T23:26:44.847Z,17.70
2023-02-16T23:29:11.888Z,16.13
2023-02-16T23:31:40.672Z,15.18
2023-02-16T23:34:07.800Z,17.75
2023-02-16T23:36:36.799Z,19.67
2023-02-16T23:39:09.046Z,16.98
2023-02-16T23:41:36.317Z,18.95
2023-02-16T23:44:04.282Z,14.85
2023-02-16T23:46:31.282Z,15.15
2023-02-16T23:48:57.975Z,16.38
2023-02-16T23:51:24.902Z,18.10
2023-02-16T23:53:51.554Z,16.90
2023-02-16T23:56:27.064Z,17.90
2023-02-16T23:58:57.436Z,16.27
